Time;durP1;ratioP1;P1;durP2;ratioP2;P2;SDS_P1;SDS_P2;PMS_P1;PMS_P2;Temp;Humidity;BMP_temperature;BMP_pressure;BME280_temperature;BME280_humidity;BME280_pressure;Samples;Min_cycle;Max_cycle;Signal;HPM_P1;HPM_P2
2021/08/29 00:02:09;;;;;;;;;8.50;7.00;;;;;23.53;46.74;101379.47;6309565;22;63666;-78
2021/08/29 00:04:35;;;;;;;;;9.75;8.00;;;;;23.52;47.13;101378.59;6281386;22;66808;-78
2021/08/29 00:07:00;;;;;;;;;7.25;7.00;;;;;23.51;47.30;101376.88;6308118;22;45311;-78
2021/08/29 00:09:26;;;;;;;;;8.75;5.75;;;;;23.50;46.76;101369.81;6308977;22;45263;-78
2021/08/29 00:11:51;;;;;;;;;8.00;8.00;;;;;23.50;47.28;101369.81;6282370;22;45200;-78
2021/08/29 00:14:16;;;;;;;;;9.75;6.50;;;;;23.51;47.16;101363.53;6281454;22;65111;-78
2021/08/29 00:16:42;;;;;;;;;6.50;5.50;;;;;23.51;46.74;101370.66;6255954;22;66426;-78
2021/08/29 00:19:07;;;;;;;;;9.00;6.25;;;;;23.50;46.75;101369.81;6255863;22;61215;-78
2021/08/29 00:21:32;;;;;;;;;13.25;10.00;;;;;23.49;47.29;101370.72;6307854;22;63131;-78
2021/08/29 00:23:58;;;;;;;;;5.00;5.00;;;;;23.48;46.76;101371.66;6308208;22;48132;-78
2021/08/29 00:26:24;;;;;;;;;8.50;6.25;;;;;23.49;46.86;101376.06;6281959;22;45145;-78
2021/08/29 00:28:50;;;;;;;;;9.25;6.25;;;;;23.49;47.45;101362.75;6281895;22;45328;-78
2021/08/29 00:31:15;;;;;;;;;5.50;5.50;;;;;23.50;46.89;101364.47;6282884;22;45193;-78
2021/08/29 00:33:43;;;;;;;;;6.50;6.50;;;;;23.50;46.66;101372.47;6308293;22;46943;-78
2021/08/29 00:36:08;;;;;;;;;6.75;6.50;;;;;23.49;46.91;101361.88;6281661;22;56251;-77
2021/08/29 00:38:34;;;;;;;;;7.75;7.75;;;;;23.48;46.97;101358.34;6281760;22;63399;-77
2021/08/29 00:40:59;;;;;;;;;7.50;6.00;;;;;23.49;47.10;101362.75;6309307;22;62113;-77
2021/08/29 00:43:24;;;;;;;;;9.50;8.00;;;;;23.43;47.49;101357.59;6309810;22;45396;-77
2021/08/29 00:45:51;;;;;;;;;8.75;5.50;;;;;23.48;47.44;101368.13;6309761;22;49206;-77
2021/08/29 00:48:17;;;;;;;;;7.00;6.25;;;;;23.46;47.42;101356.66;6310291;22;45443;-77
2021/08/29 00:50:43;;;;;;;;;6.00;5.00;;;;;23.44;47.07;101359.34;6282126;22;45216;-78
2021/08/29 00:53:08;;;;;;;;;7.25;6.75;;;;;23.44;47.53;101356.69;6282650;22;46479;-77
2021/08/29 00:55:34;;;;;;;;;8.75;6.75;;;;;23.44;47.32;101359.34;6307831;22;50341;-78
2021/08/29 00:58:00;;;;;;;;;6.25;5.75;;;;;23.43;47.04;101349.63;6282135;22;45289;-78
2021/08/29 01:00:25;;;;;;;;;8.50;5.00;;;;;23.40;47.43;101350.59;6281936;22;45966;-78
2021/08/29 01:02:50;;;;;;;;;7.00;6.75;;;;;23.42;47.20;101359.41;6309012;22;66894;-78
2021/08/29 01:05:17;;;;;;;;;9.25;8.50;;;;;23.41;47.21;101357.66;6308002;22;56019;-78
2021/08/29 01:07:54;;;;;;;;;6.75;6.75;;;;;23.42;46.91;101361.19;6281869;22;45303;-77
2021/08/29 01:10:22;;;;;;;;;9.75;7.25;;;;;23.39;47.31;101356.84;6281587;22;45433;-77
2021/08/29 01:12:49;;;;;;;;;6.25;6.25;;;;;23.38;47.26;101365.78;6281886;22;46566;-77
2021/08/29 01:15:14;;;;;;;;;10.50;5.75;;;;;23.34;47.32;101355.25;6308411;22;45214;-77
2021/08/29 01:17:40;;;;;;;;;8.50;8.50;;;;;23.33;47.51;101350.84;6282591;22;45227;-78
2021/08/29 01:20:25;;;;;;;;;9.50;9.00;;;;;23.31;47.17;101342.94;6281916;22;51051;-78
2021/08/29 01:22:51;;;;;;;;;6.00;5.25;;;;;23.33;47.55;101348.19;6256284;22;45217;-78
2021/08/29 01:25:27;;;;;;;;;7.75;7.00;;;;;23.30;47.52;101345.66;6282048;22;45789;-77
2021/08/29 01:28:07;;;;;;;;;10.00;8.00;;;;;23.28;47.39;101344.81;6281529;22;45389;-78
2021/08/29 01:30:32;;;;;;;;;9.50;6.50;;;;;23.30;47.22;101343.84;6284695;22;45176;-77
2021/08/29 01:32:58;;;;;;;;;6.75;5.50;;;;;23.30;47.78;101345.66;6307716;22;51075;-78
2021/08/29 01:35:23;;;;;;;;;6.25;6.25;;;;;23.30;47.68;101343.00;6256420;22;45502;-77
2021/08/29 01:37:49;;;;;;;;;7.50;6.25;;;;;23.32;47.68;101344.66;6308332;22;45428;-78
2021/08/29 01:40:15;;;;;;;;;8.50;7.50;;;;;23.31;47.36;101340.25;6308129;22;45358;-78
2021/08/29 01:42:40;;;;;;;;;6.00;6.00;;;;;23.31;47.49;101352.72;6306220;22;68460;-78
2021/08/29 01:45:06;;;;;;;;;11.00;7.00;;;;;23.32;47.27;101354.44;6282283;22;45197;-78
2021/08/29 01:47:32;;;;;;;;;7.50;7.50;;;;;23.28;47.73;101352.78;6307508;22;45158;-78
2021/08/29 01:49:57;;;;;;;;;9.00;8.00;;;;;23.29;47.38;101352.78;6307886;22;47136;-78
2021/08/29 01:52:23;;;;;;;;;9.50;6.25;;;;;23.27;47.79;101345.72;6281716;22;50196;-77
2021/08/29 01:54:48;;;;;;;;;7.25;6.25;;;;;23.30;47.14;101350.97;6280307;22;67070;-78
2021/08/29 01:57:14;;;;;;;;;9.00;6.00;;;;;23.30;47.92;101354.50;6306966;22;64043;-78
2021/08/29 01:59:43;;;;;;;;;8.00;7.75;;;;;23.31;47.80;101355.38;6307019;22;45232;-78
2021/08/29 02:02:12;;;;;;;;;4.75;4.75;;;;;23.28;47.83;101355.47;6281437;22;47379;-78
2021/08/29 02:04:37;;;;;;;;;10.50;8.00;;;;;23.28;47.52;101355.47;6307989;22;45374;-78
2021/08/29 02:07:14;;;;;;;;;6.75;6.25;;;;;23.27;47.81;101361.72;6282103;22;45221;-78
2021/08/29 02:09:43;;;;;;;;;7.00;6.00;;;;;23.26;47.95;101359.97;6308117;22;45219;-78
2021/08/29 02:12:09;;;;;;;;;9.50;8.50;;;;;23.25;47.67;101351.13;6280955;22;46924;-78
2021/08/29 02:14:43;;;;;;;;;9.00;8.00;;;;;23.26;47.77;101354.66;6281772;22;45217;-78
2021/08/29 02:17:12;;;;;;;;;8.25;6.75;;;;;23.25;47.39;101355.56;6282546;22;45236;-78
2021/08/29 02:19:37;;;;;;;;;8.25;7.50;;;;;23.24;47.98;101364.50;6308908;22;45346;-78
2021/08/29 02:22:03;;;;;;;;;9.50;7.75;;;;;23.21;47.72;101351.28;6282818;22;46914;-78
2021/08/29 02:24:29;;;;;;;;;7.50;7.00;;;;;23.24;48.18;101361.81;6282834;22;45251;-78
2021/08/29 02:26:54;;;;;;;;;11.75;8.00;;;;;23.21;48.06;101360.16;6257376;22;45299;-78
2021/08/29 02:29:20;;;;;;;;;6.25;6.25;;;;;23.22;48.27;101369.00;6308393;22;57195;-78
2021/08/29 02:31:45;;;;;;;;;7.75;7.25;;;;;23.22;48.12;101369.00;6283213;22;45374;-78
2021/08/29 02:34:11;;;;;;;;;8.50;8.00;;;;;23.21;47.91;101367.25;6256932;22;45297;-78
2021/08/29 02:36:36;;;;;;;;;8.25;7.75;;;;;23.21;48.26;101367.25;6282415;22;63793;-78
2021/08/29 02:39:02;;;;;;;;;9.75;8.25;;;;;23.21;48.13;101364.59;6283358;22;45263;-77
2021/08/29 02:41:27;;;;;;;;;8.00;8.00;;;;;23.19;47.75;101366.41;6283162;22;45201;-78
2021/08/29 02:43:52;;;;;;;;;11.00;8.75;;;;;23.18;47.72;101370.00;6281375;22;65282;-78
2021/08/29 02:46:18;;;;;;;;;8.25;8.25;;;;;23.15;47.68;101364.78;6283460;22;45620;-78
2021/08/29 02:48:46;;;;;;;;;11.50;9.25;;;;;23.15;48.18;101360.34;6282209;22;52139;-78
2021/08/29 02:51:12;;;;;;;;;7.25;7.25;;;;;23.15;48.11;101359.47;6283669;22;45365;-78
2021/08/29 02:53:54;;;;;;;;;8.00;7.75;;;;;23.12;47.89;101360.44;6309065;22;45243;-78
2021/08/29 02:56:43;;;;;;;;;14.00;10.75;;;;;23.03;47.50;101350.97;6286549;22;45132;-78
2021/08/29 02:59:14;;;;;;;;;10.25;9.50;;;;;23.04;47.88;101346.53;6263786;22;45358;-78
2021/08/29 03:01:40;;;;;;;;;10.00;7.00;;;;;23.06;48.23;101350.00;6257524;22;46812;-78
2021/08/29 03:04:06;;;;;;;;;8.50;7.75;;;;;23.06;48.13;101353.53;6256770;22;45429;-78
2021/08/29 03:06:31;;;;;;;;;9.00;7.00;;;;;23.08;48.10;101351.69;6308915;22;45232;-78
2021/08/29 03:08:57;;;;;;;;;13.00;11.00;;;;;23.10;48.09;101351.63;6308474;22;45849;-78
2021/08/29 03:11:22;;;;;;;;;9.00;8.25;;;;;23.12;48.10;101352.47;6308943;22;45616;-78
2021/08/29 03:13:48;;;;;;;;;11.75;10.00;;;;;23.13;48.18;101359.53;6255436;22;60726;-77
2021/08/29 03:16:13;;;;;;;;;9.50;8.50;;;;;23.12;47.95;101353.34;6283483;22;45418;-78
2021/08/29 03:18:39;;;;;;;;;8.00;7.00;;;;;23.11;47.93;101351.59;6281336;22;64686;-78
2021/08/29 03:21:04;;;;;;;;;8.00;8.00;;;;;23.12;47.76;101358.66;6281453;22;70690;-78
2021/08/29 03:23:30;;;;;;;;;11.75;11.25;;;;;23.13;47.92;101357.72;6282078;22;45287;-78
2021/08/29 03:25:55;;;;;;;;;12.00;10.00;;;;;23.13;47.97;101348.88;6309197;22;45247;-78
2021/08/29 03:28:21;;;;;;;;;6.75;6.00;;;;;23.13;48.45;101348.88;6282967;22;45255;-78
2021/08/29 03:30:46;;;;;;;;;10.00;9.00;;;;;23.11;48.48;101345.41;6282294;22;48471;-78
2021/08/29 03:33:12;;;;;;;;;10.50;10.50;;;;;23.10;48.00;101340.97;6281926;22;60756;-78
2021/08/29 03:35:37;;;;;;;;;9.00;8.00;;;;;23.11;47.89;101346.28;6283691;22;45374;-78
2021/08/29 03:38:02;;;;;;;;;11.75;11.75;;;;;23.09;48.01;101342.75;6310422;22;46615;-78
2021/08/29 03:40:28;;;;;;;;;10.00;8.50;;;;;23.08;48.14;101340.16;6282594;22;48121;-78
2021/08/29 03:42:53;;;;;;;;;9.50;9.50;;;;;23.09;47.91;101340.09;6307757;22;64557;-78
2021/08/29 03:45:19;;;;;;;;;11.75;9.25;;;;;23.07;48.25;101331.28;6309377;22;45578;-78
2021/08/29 03:47:44;;;;;;;;;9.00;9.00;;;;;23.07;48.54;101341.94;6282601;22;45472;-78
2021/08/29 03:50:10;;;;;;;;;5.50;4.75;;;;;23.07;48.15;101328.63;6282968;22;45964;-78
2021/08/29 03:52:36;;;;;;;;;11.50;10.75;;;;;23.06;48.26;101328.69;6282514;22;45372;-77
2021/08/29 03:55:02;;;;;;;;;10.00;9.00;;;;;23.06;48.09;101332.22;6282794;22;45192;-78
2021/08/29 03:57:27;;;;;;;;;10.75;9.00;;;;;22.98;47.85;101320.09;6282777;22;45512;-78
2021/08/29 03:59:53;;;;;;;;;10.75;9.25;;;;;23.03;48.53;101331.47;6308286;22;46190;-78
2021/08/29 04:02:18;;;;;;;;;9.50;8.50;;;;;23.00;48.12;101316.44;6281960;22;45381;-78
2021/08/29 04:04:44;;;;;;;;;9.00;8.00;;;;;22.99;48.58;101320.03;6309432;22;45431;-77
2021/08/29 04:07:09;;;;;;;;;10.25;9.00;;;;;22.99;48.51;101329.81;6281804;22;61435;-78
2021/08/29 04:09:35;;;;;;;;;10.00;8.00;;;;;22.99;48.54;101325.34;6283022;22;45307;-78
2021/08/29 04:12:00;;;;;;;;;9.50;8.00;;;;;22.97;48.57;101326.34;6280952;22;67977;-78
2021/08/29 04:14:29;;;;;;;;;10.25;8.75;;;;;22.98;48.07;101330.72;6282692;22;45262;-78
2021/08/29 04:16:58;;;;;;;;;12.75;10.75;;;;;22.94;48.65;101327.31;6308839;22;45256;-77
2021/08/29 04:19:24;;;;;;;;;9.50;8.00;;;;;22.93;48.79;101330.88;6282886;22;46237;-77
2021/08/29 04:21:51;;;;;;;;;9.00;7.00;;;;;22.95;48.19;101331.72;6282495;22;45259;-77
2021/08/29 04:24:19;;;;;;;;;11.25;9.75;;;;;22.93;48.56;101324.69;6256943;22;45224;-78
2021/08/29 04:26:44;;;;;;;;;7.50;7.50;;;;;22.92;48.50;101328.25;6282194;22;45268;-78
2021/08/29 04:29:10;;;;;;;;;10.75;8.00;;;;;22.90;48.49;101325.66;6282118;22;46000;-78
2021/08/29 04:31:35;;;;;;;;;9.00;9.00;;;;;22.91;48.77;101331.84;6310095;22;45143;-77
2021/08/29 04:34:05;;;;;;;;;7.50;6.00;;;;;22.90;48.28;101325.66;6310468;22;45250;-78
2021/08/29 04:36:31;;;;;;;;;11.00;9.00;;;;;22.90;48.48;101333.63;6256976;22;45408;-78
2021/08/29 04:39:00;;;;;;;;;8.25;8.25;;;;;22.91;48.11;101334.50;6256715;22;46924;-78
2021/08/29 04:41:25;;;;;;;;;9.00;8.00;;;;;22.94;48.87;101339.75;6282377;22;45247;-78
2021/08/29 04:43:51;;;;;;;;;7.25;7.25;;;;;22.94;48.80;101332.63;6281544;22;64138;-78
2021/08/29 04:46:16;;;;;;;;;12.75;9.00;;;;;22.92;48.74;101337.13;6282467;22;47870;-78
2021/08/29 04:48:41;;;;;;;;;9.25;8.50;;;;;22.92;48.45;101339.78;6282841;22;45233;-78
2021/08/29 04:51:07;;;;;;;;;11.25;8.25;;;;;22.91;48.50;101337.19;6282359;22;48058;-78
2021/08/29 04:53:32;;;;;;;;;9.50;8.75;;;;;22.91;48.44;101334.50;6256759;22;45394;-78
2021/08/29 04:55:58;;;;;;;;;9.00;9.00;;;;;22.95;48.18;101329.06;6307122;22;65131;-78
2021/08/29 04:58:23;;;;;;;;;11.00;9.00;;;;;22.93;48.24;101330.00;6307675;22;45260;-78
2021/08/29 05:00:48;;;;;;;;;9.25;8.25;;;;;22.92;48.35;101325.59;6309920;22;45221;-76
2021/08/29 05:03:14;;;;;;;;;9.00;9.00;;;;;22.93;48.14;101328.22;6281613;22;52091;-76
2021/08/29 05:05:39;;;;;;;;;7.25;7.25;;;;;22.93;48.47;101330.88;6308655;22;45436;-78
2021/08/29 05:08:05;;;;;;;;;8.00;7.25;;;;;22.93;48.88;101333.53;6306626;22;75987;-78
2021/08/29 05:10:30;;;;;;;;;7.25;6.50;;;;;22.94;48.41;101334.44;6308464;22;45199;-78
2021/08/29 05:12:56;;;;;;;;;6.00;6.00;;;;;22.95;48.22;101339.69;6255172;22;64642;-77
2021/08/29 05:15:21;;;;;;;;;8.25;7.50;;;;;22.92;48.58;101339.78;6308460;22;45420;-78
2021/08/29 05:17:46;;;;;;;;;8.75;8.75;;;;;22.91;48.61;101343.38;6281288;22;64279;-78
2021/08/29 05:20:12;;;;;;;;;14.25;12.50;;;;;22.86;51.26;101342.66;6281880;22;45364;-79
2021/08/29 05:22:37;;;;;;;;;10.75;10.00;;;;;22.93;50.55;101341.50;6281999;22;45165;-81
2021/08/29 05:25:04;;;;;;;;;9.00;8.25;;;;;23.03;50.46;101350.97;6281869;22;45113;-83
2021/08/29 05:27:29;;;;;;;;;13.00;9.00;;;;;23.05;50.67;101343.78;6281359;22;46152;-80
2021/08/29 05:29:55;;;;;;;;;11.25;8.25;;;;;23.11;49.85;101346.28;6281752;22;45171;-79
2021/08/29 05:32:20;;;;;;;;;9.00;9.00;;;;;23.15;50.04;101356.81;6309914;22;45150;-78
2021/08/29 05:34:46;;;;;;;;;10.50;7.75;;;;;23.18;50.00;101356.69;6307769;22;45576;-78
2021/08/29 05:37:11;;;;;;;;;7.50;6.00;;;;;23.19;49.23;101348.66;6307575;22;47522;-86
2021/08/29 05:39:36;;;;;;;;;9.00;9.00;;;;;23.20;49.77;101360.19;6310062;22;45166;-85
2021/08/29 05:42:02;;;;;;;;;10.50;8.50;;;;;23.17;49.36;101361.16;6307717;22;48506;-85
2021/08/29 05:44:27;;;;;;;;;11.75;10.75;;;;;23.20;48.86;101360.19;6309629;22;45361;-87
2021/08/29 05:46:53;;;;;;;;;13.25;13.25;;;;;23.17;49.27;101352.28;6308424;22;45357;-83
2021/08/29 05:49:18;;;;;;;;;12.75;12.75;;;;;23.19;49.16;101348.66;6281337;22;53579;-87
2021/08/29 05:51:44;;;;;;;;;24.00;23.00;;;;;23.19;49.56;101359.31;6282205;22;45282;-86
2021/08/29 05:54:09;;;;;;;;;73.25;62.75;;;;;23.26;50.28;101359.97;6308394;22;61242;-84
2021/08/29 05:56:35;;;;;;;;;59.25;48.25;;;;;23.25;50.06;101342.25;6311180;22;45953;-85
2021/08/29 05:59:00;;;;;;;;;84.25;81.25;;;;;23.22;50.57;101342.38;6309121;22;48562;-82
2021/08/29 06:01:25;;;;;;;;;61.00;48.25;;;;;23.29;50.58;101355.44;6308337;22;56922;-85
2021/08/29 06:03:51;;;;;;;;;61.25;49.00;;;;;23.34;50.19;101349.94;6308592;22;45247;-82
2021/08/29 06:06:16;;;;;;;;;65.00;52.00;;;;;23.38;51.33;101352.47;6310177;22;57175;-85
2021/08/29 06:08:41;;;;;;;;;54.25;45.50;;;;;23.36;50.02;101340.09;6282224;22;62500;-87
2021/08/29 06:11:08;;;;;;;;;76.75;64.75;;;;;23.36;50.71;101342.75;6310295;22;53744;-89
2021/08/29 06:13:34;;;;;;;;;55.50;44.25;;;;;23.37;49.78;101339.19;6257332;22;45195;-90
2021/08/29 06:16:00;;;;;;;;;103.00;93.75;;;;;23.35;51.01;101346.34;6257117;22;47005;-83
2021/08/29 06:18:25;;;;;;;;;94.00;86.75;;;;;23.38;50.15;101344.47;6309860;22;45112;-88
2021/08/29 06:20:50;;;;;;;;;68.25;54.00;;;;;23.37;49.82;101340.06;6283664;22;45536;-85
2021/08/29 06:23:16;;;;;;;;;26.75;22.75;;;;;23.44;49.01;101342.50;6309760;22;45152;-81
2021/08/29 06:25:41;;;;;;;;;20.25;19.25;;;;;23.33;49.21;101346.41;6282148;22;46193;-80
2021/08/29 06:28:07;;;;;;;;;18.00;16.50;;;;;23.35;49.28;101352.53;6310207;22;53813;-78
2021/08/29 06:30:35;;;;;;;;;16.00;12.25;;;;;23.39;48.38;101359.53;6310942;22;45259;-76
2021/08/29 06:33:00;;;;;;;;;14.25;12.00;;;;;23.33;49.27;101351.72;6310917;22;45320;-78
2021/08/29 06:35:26;;;;;;;;;14.50;13.25;;;;;23.31;49.34;101348.25;6310584;22;45352;-88
2021/08/29 06:37:51;;;;;;;;;9.75;9.25;;;;;23.26;49.08;101342.19;6308762;22;45301;-84
2021/08/29 06:40:16;;;;;;;;;9.75;9.75;;;;;23.25;48.95;101356.44;6308948;22;45690;-84
2021/08/29 06:42:42;;;;;;;;;8.50;6.50;;;;;23.18;49.13;101352.22;6308297;22;47532;-87
2021/08/29 06:45:09;;;;;;;;;10.25;8.50;;;;;23.15;48.83;101347.03;6283502;22;45868;-83
2021/08/29 06:47:34;;;;;;;;;10.50;9.25;;;;;23.26;48.84;101362.63;6283389;22;45217;-84
2021/08/29 06:50:00;;;;;;;;;9.75;8.00;;;;;23.17;49.45;101347.84;6309928;22;45205;-83
2021/08/29 06:52:25;;;;;;;;;10.75;5.50;;;;;23.10;48.35;101352.47;6310023;22;51071;-85
2021/08/29 06:54:50;;;;;;;;;8.50;7.50;;;;;23.05;49.73;101351.78;6308396;22;54308;-82
2021/08/29 06:57:34;;;;;;;;;;;;;;;;;;;;;
2021/08/29 07:00:00;;;;;;;;;7.75;6.75;;;;;23.21;48.80;101373.47;6286500;22;68897;-85
2021/08/29 07:02:25;;;;;;;;;7.00;6.00;;;;;23.11;48.85;101362.25;6283407;22;45244;-85
2021/08/29 07:04:51;;;;;;;;;9.00;9.00;;;;;23.10;49.66;101354.28;6309034;22;46086;-81
2021/08/29 07:07:16;;;;;;;;;8.00;8.00;;;;;23.10;49.33;101355.16;6309177;22;45191;-84
2021/08/29 07:09:44;;;;;;;;;5.50;4.00;;;;;23.14;49.00;101358.59;6257282;22;45180;-87
2021/08/29 07:12:10;;;;;;;;;8.00;7.00;;;;;23.13;49.47;101355.06;6282467;22;45365;-85
2021/08/29 07:14:39;;;;;;;;;11.00;7.75;;;;;23.17;49.04;101360.28;6283106;22;45375;-89
2021/08/29 07:17:04;;;;;;;;;11.00;8.00;;;;;23.10;49.37;101362.25;6284040;22;45541;-87
2021/08/29 07:19:30;;;;;;;;;7.00;5.25;;;;;23.10;49.62;101360.47;6258230;22;45381;-90
2021/08/29 07:21:55;;;;;;;;;5.75;5.75;;;;;23.03;49.78;101356.31;6256997;22;60945;-89
2021/08/29 07:24:21;;;;;;;;;10.75;7.75;;;;;23.03;50.70;101356.31;6285213;22;56670;-86
2021/08/29 07:26:46;;;;;;;;;6.25;5.75;;;;;23.02;50.12;101359.88;6258737;22;45139;-87
2021/08/29 07:29:11;;;;;;;;;9.25;5.75;;;;;23.05;49.67;101357.09;6311913;22;45230;-87
2021/08/29 07:31:37;;;;;;;;;5.75;5.50;;;;;23.05;49.04;101366.88;6285277;22;49026;-86
2021/08/29 07:34:02;;;;;;;;;12.00;6.50;;;;;22.94;49.14;101353.06;6267740;22;47132;-86
2021/08/29 07:36:28;;;;;;;;;8.75;8.75;;;;;22.96;49.47;101364.53;6310810;22;45276;-87
2021/08/29 07:39:01;;;;;;;;;6.75;6.00;;;;;22.97;49.08;101368.94;6309628;22;45337;-88
2021/08/29 07:41:26;;;;;;;;;6.75;6.00;;;;;22.96;49.36;101367.19;6310728;22;53403;-87
2021/08/29 07:43:52;;;;;;;;;6.00;5.50;;;;;22.90;49.21;101357.59;6310297;22;48579;-87
2021/08/29 07:46:24;;;;;;;;;8.50;6.00;;;;;22.97;49.23;101371.59;6308196;22;45296;-87
2021/08/29 07:48:50;;;;;;;;;12.25;9.25;;;;;22.96;49.53;101377.84;6257955;22;45188;-87
2021/08/29 07:51:15;;;;;;;;;9.50;9.50;;;;;22.96;49.29;101364.53;6308484;22;45405;-86
2021/08/29 07:53:40;;;;;;;;;9.25;9.25;;;;;22.97;49.25;101372.47;6282462;22;46848;-86
2021/08/29 07:56:06;;;;;;;;;6.25;6.00;;;;;22.99;49.44;101378.59;6281142;22;65334;-87
2021/08/29 07:58:31;;;;;;;;;8.50;8.50;;;;;23.01;49.86;101382.06;6282327;22;45484;-87
2021/08/29 08:00:57;;;;;;;;;6.00;6.00;;;;;23.01;49.74;101371.44;6282503;22;45512;-87
2021/08/29 08:03:22;;;;;;;;;7.25;7.25;;;;;22.98;49.72;101368.88;6282740;22;55570;-87
2021/08/29 08:05:47;;;;;;;;;8.25;7.00;;;;;22.99;49.34;101375.94;6309761;22;60976;-86
2021/08/29 08:08:13;;;;;;;;;7.25;7.00;;;;;22.98;49.90;101376.00;6309760;22;45425;-86
2021/08/29 08:10:38;;;;;;;;;9.00;6.75;;;;;22.98;50.44;101373.31;6282595;22;45426;-87
2021/08/29 08:13:04;;;;;;;;;6.75;6.75;;;;;23.01;49.92;101374.09;6281087;22;63706;-88
2021/08/29 08:15:29;;;;;;;;;6.75;6.75;;;;;23.00;50.03;101367.03;6307933;22;45218;-89
2021/08/29 08:17:55;;;;;;;;;7.00;7.00;;;;;22.98;49.26;101368.00;6309361;22;45266;-88
2021/08/29 08:20:20;;;;;;;;;5.00;5.00;;;;;22.96;50.34;101368.06;6283329;22;45409;-87
2021/08/29 08:22:47;;;;;;;;;8.00;8.00;;;;;22.97;49.58;101361.81;6282037;22;55693;-87
2021/08/29 08:25:12;;;;;;;;;7.25;6.75;;;;;23.00;49.78;101375.00;6282853;22;45245;-86
2021/08/29 08:27:38;;;;;;;;;6.50;6.50;;;;;22.98;49.44;101362.69;6308720;22;45207;-88
2021/08/29 08:30:04;;;;;;;;;11.75;8.00;;;;;22.98;49.32;101360.88;6307866;22;57213;-88
2021/08/29 08:32:29;;;;;;;;;9.00;9.00;;;;;22.91;49.86;101354.00;6256298;22;47288;-87
2021/08/29 08:34:55;;;;;;;;;12.75;11.50;;;;;22.98;49.14;101370.66;6283114;22;45081;-87
2021/08/29 08:37:20;;;;;;;;;10.50;10.00;;;;;22.90;49.33;101362.91;6284800;22;45203;-88
2021/08/29 08:39:46;;;;;;;;;9.75;9.00;;;;;22.89;49.80;101357.66;6284262;22;45232;-88
2021/08/29 08:42:11;;;;;;;;;10.00;9.75;;;;;22.90;49.70;101362.91;6308297;22;46366;-87
2021/08/29 08:44:40;;;;;;;;;10.50;10.00;;;;;22.97;49.55;101376.91;6310935;22;46124;-87
2021/08/29 08:47:06;;;;;;;;;11.00;8.25;;;;;22.97;49.38;101375.13;6336433;22;45266;-89
2021/08/29 08:49:33;;;;;;;;;8.00;8.00;;;;;22.98;49.79;101370.66;6282279;22;45404;-88
2021/08/29 08:52:00;;;;;;;;;8.50;7.25;;;;;23.01;49.44;101367.91;6283223;22;45951;-87
2021/08/29 08:54:26;;;;;;;;;9.00;6.50;;;;;22.99;49.23;101375.06;6283293;22;45221;-88
2021/08/29 08:56:51;;;;;;;;;8.25;6.75;;;;;22.98;49.15;101366.22;6283032;22;45338;-87
2021/08/29 08:59:17;;;;;;;;;8.25;7.25;;;;;22.99;49.12;101372.41;6282449;22;45291;-87
2021/08/29 09:01:42;;;;;;;;;6.25;6.00;;;;;23.00;49.29;101372.34;6282496;22;52846;-89
2021/08/29 09:04:08;;;;;;;;;10.00;8.00;;;;;22.99;49.63;101372.41;6308400;22;45816;-90
2021/08/29 09:06:34;;;;;;;;;6.50;6.50;;;;;22.98;48.74;101366.22;6282977;22;45311;-88
2021/08/29 09:09:03;;;;;;;;;8.25;7.00;;;;;22.97;48.63;101368.94;6310174;22;45246;-87
2021/08/29 09:11:29;;;;;;;;;8.25;5.75;;;;;22.96;48.86;101368.06;6308169;22;45254;-88
2021/08/29 09:13:55;;;;;;;;;8.00;7.00;;;;;22.94;49.33;101377.03;6307661;22;45194;-88
2021/08/29 09:16:21;;;;;;;;;6.25;5.00;;;;;22.96;49.15;101372.50;6282562;22;45177;-88
2021/08/29 09:19:08;;;;;;;;;7.50;7.00;;;;;22.95;49.18;101366.31;6282574;22;45441;-87
2021/08/29 09:21:35;;;;;;;;;6.75;6.00;;;;;22.99;49.06;101364.41;6290539;22;47082;-88
2021/08/29 09:24:11;;;;;;;;;6.25;5.75;;;;;23.02;49.06;101362.53;6282956;22;45299;-88
2021/08/29 09:26:41;;;;;;;;;8.75;6.75;;;;;23.01;48.94;101355.44;6284525;22;45405;-89
2021/08/29 09:29:33;;;;;;;;;8.00;7.00;;;;;23.04;48.97;101368.69;6257354;22;45371;-87
2021/08/29 09:31:58;;;;;;;;;8.00;5.50;;;;;23.02;48.45;101358.97;6303090;22;45620;-89
2021/08/29 09:34:23;;;;;;;;;7.75;6.50;;;;;23.04;48.66;101362.50;6282371;22;64782;-87
2021/08/29 09:36:51;;;;;;;;;7.25;6.00;;;;;23.05;48.57;101362.44;6257708;22;45233;-88
2021/08/29 09:39:18;;;;;;;;;7.00;6.00;;;;;23.01;48.44;101354.59;6284216;22;45209;-88
2021/08/29 09:41:44;;;;;;;;;9.50;6.00;;;;;23.00;49.13;101359.03;6283053;22;46950;-88
2021/08/29 09:44:11;;;;;;;;;7.25;6.00;;;;;22.90;48.50;101346.94;6309684;22;45321;-88
2021/08/29 09:46:55;;;;;;;;;6.25;6.25;;;;;23.01;48.78;101358.13;6310301;22;45392;-87
2021/08/29 09:49:33;;;;;;;;;7.75;7.50;;;;;23.00;48.26;101359.03;6311363;22;45175;-88
2021/08/29 09:51:59;;;;;;;;;5.75;5.25;;;;;22.97;48.57;101347.63;6259857;22;46956;-88
2021/08/29 09:54:27;;;;;;;;;7.50;6.00;;;;;23.02;48.68;101353.66;6283078;22;45323;-88
2021/08/29 09:56:53;;;;;;;;;7.25;7.25;;;;;22.98;48.51;101342.25;6283185;22;45235;-88
2021/08/29 09:59:40;;;;;;;;;6.00;6.00;;;;;23.00;48.92;101355.50;6282785;22;45369;-88
2021/08/29 10:02:06;;;;;;;;;6.75;6.75;;;;;23.01;48.59;101350.13;6320699;22;45525;-87
2021/08/29 10:04:31;;;;;;;;;5.25;4.75;;;;;22.95;48.73;101346.81;6313009;22;45292;-88
2021/08/29 10:07:18;;;;;;;;;6.50;6.00;;;;;22.99;48.64;101341.31;6257252;22;45339;-81
2021/08/29 10:09:47;;;;;;;;;8.00;8.00;;;;;23.00;49.21;101348.38;6308793;22;45183;-83
2021/08/29 10:12:13;;;;;;;;;6.75;6.25;;;;;23.06;49.18;101355.31;6257048;22;48042;-82
2021/08/29 10:14:41;;;;;;;;;8.50;8.00;;;;;23.02;49.43;101341.25;6282919;22;45339;-82
2021/08/29 10:17:07;;;;;;;;;8.00;6.25;;;;;23.12;48.93;101349.81;6313953;22;45260;-86
2021/08/29 10:19:33;;;;;;;;;8.75;8.00;;;;;23.03;49.76;101335.00;6283969;22;45474;-84
2021/08/29 10:22:02;;;;;;;;;8.50;7.25;;;;;23.10;50.83;101339.16;6308342;22;46871;-82
2021/08/29 10:24:32;;;;;;;;;7.25;7.25;;;;;23.20;50.83;101344.22;6309508;22;45180;-79
2021/08/29 10:27:09;;;;;;;;;8.50;8.50;;;;;23.28;51.81;101360.78;6310890;22;45314;-84
2021/08/29 10:29:48;;;;;;;;;9.50;8.50;;;;;23.33;51.51;101350.84;6308686;22;45187;-83
2021/08/29 10:32:24;;;;;;;;;8.25;8.00;;;;;23.27;51.97;101338.59;6308474;22;47249;-83
2021/08/29 10:34:49;;;;;;;;;9.75;9.25;;;;;23.29;51.92;101343.91;6257907;22;45223;-83
2021/08/29 10:37:39;;;;;;;;;10.00;9.00;;;;;23.28;51.91;101343.03;6282158;22;62304;-85
2021/08/29 10:40:06;;;;;;;;;10.50;8.00;;;;;23.32;50.30;101344.66;6260253;22;45414;-83
2021/08/29 10:42:37;;;;;;;;;7.25;7.25;;;;;23.29;50.62;101334.13;6256436;22;47390;-83
2021/08/29 10:45:06;;;;;;;;;13.00;10.00;;;;;23.31;50.71;101342.06;6283403;22;45389;-82
2021/08/29 10:47:32;;;;;;;;;9.00;8.25;;;;;23.24;50.87;101335.19;6285077;22;45137;-82
2021/08/29 10:49:57;;;;;;;;;9.00;9.00;;;;;23.37;51.11;101350.72;6311011;22;45214;-86
2021/08/29 10:52:23;;;;;;;;;9.50;8.50;;;;;23.39;49.93;101340.00;6257081;22;47072;-87
2021/08/29 10:54:52;;;;;;;;;10.75;9.00;;;;;23.41;49.60;101344.34;6282923;22;45381;-88
2021/08/29 10:57:34;;;;;;;;;11.75;9.25;;;;;23.39;49.72;101340.88;6283198;22;45309;-91
2021/08/29 11:00:07;;;;;;;;;8.25;7.25;;;;;23.39;50.18;101342.66;6309905;22;45742;-88
2021/08/29 11:02:45;;;;;;;;;8.25;8.25;;;;;23.34;49.26;101329.50;6282556;22;47410;-89
2021/08/29 11:05:14;;;;;;;;;10.00;9.50;;;;;23.36;49.33;101318.78;6284684;22;45311;-91
2021/08/29 11:07:45;;;;;;;;;20.50;18.75;;;;;23.44;48.70;101338.03;6283777;22;45116;-92
2021/08/29 11:10:13;;;;;;;;;16.50;14.00;;;;;23.41;48.96;101325.69;6282614;22;45449;-89
2021/08/29 11:12:39;;;;;;;;;10.25;9.25;;;;;23.44;48.44;101327.38;6282452;22;47251;-92
2021/08/29 11:15:08;;;;;;;;;11.00;9.50;;;;;23.46;48.86;101328.22;6283590;22;45161;-89
2021/08/29 11:18:02;;;;;;;;;10.00;10.00;;;;;23.49;49.87;101327.22;6308676;22;45310;-89
2021/08/29 11:20:33;;;;;;;;;12.75;12.00;;;;;23.52;50.00;101314.66;6309158;22;45676;-83
2021/08/29 11:22:59;;;;;;;;;11.25;11.25;;;;;23.53;50.27;101316.41;6259362;22;48068;-86